Time;durP1;ratioP1;P1;durP2;ratioP2;P2;SDS_P1;SDS_P2;PMS_P1;PMS_P2;Temp;Humidity;BMP_temperature;BMP_pressure;BME280_temperature;BME280_humidity;BME280_pressure;Samples;Min_cycle;Max_cycle;Signal;HPM_P1;HPM_P2
2023/10/02 00:01:48;;;;;;;10.63;5.82;;;20.30;62.00;22.10;101871.00;;;;4945698;28;20211;-80
2023/10/02 00:04:17;;;;;;;9.20;5.78;;;20.30;62.00;22.00;101873.00;;;;4947572;28;20685;-80
2023/10/02 00:06:44;;;;;;;11.25;5.63;;;20.30;62.00;22.10;101874.00;;;;4947394;28;22078;-80
2023/10/02 00:09:11;;;;;;;9.75;5.40;;;20.30;62.10;22.00;101876.00;;;;4947706;28;20584;-80
2023/10/02 00:11:39;;;;;;;9.35;5.47;;;20.30;62.10;22.00;101872.00;;;;4948247;28;20292;-80
2023/10/02 00:14:22;;;;;;;8.43;5.03;;;20.30;62.20;22.00;101873.00;;;;4945228;28;20199;-80
2023/10/02 00:17:03;;;;;;;10.60;5.88;;;20.30;62.30;22.00;101861.00;;;;4944900;29;20203;-80
2023/10/02 00:19:35;;;;;;;8.48;5.07;;;20.30;62.40;22.00;101875.00;;;;4947546;28;20195;-80
2023/10/02 00:22:07;;;;;;;9.75;5.88;;;20.30;62.50;22.00;101873.00;;;;4947087;28;20203;-80
2023/10/02 00:24:37;;;;;;;11.70;6.50;;;20.30;62.50;22.00;101870.00;;;;4946074;28;20326;-80
2023/10/02 00:27:05;;;;;;;9.85;5.45;;;20.30;62.60;22.00;101870.00;;;;4947606;28;20198;-81
2023/10/02 00:29:32;;;;;;;12.10;6.45;;;20.30;62.60;22.00;101861.00;;;;4961649;28;20237;-80
2023/10/02 00:32:00;;;;;;;10.18;6.18;;;20.30;62.70;22.00;101859.00;;;;4946904;28;20223;-80
2023/10/02 00:34:36;;;;;;;9.73;5.70;;;20.30;62.80;22.00;101859.00;;;;4947448;28;20794;-80
2023/10/02 00:37:12;;;;;;;9.38;5.65;;;20.30;62.80;22.00;101847.00;;;;4947022;28;20199;-80
2023/10/02 00:39:41;;;;;;;9.65;6.18;;;20.30;62.90;22.00;101854.00;;;;4946168;28;20325;-81
2023/10/02 00:42:25;;;;;;;11.95;6.10;;;20.40;62.90;22.10;101858.00;;;;4945580;28;20202;-80
2023/10/02 00:44:54;;;;;;;10.18;5.88;;;20.30;62.90;22.10;101849.00;;;;4948006;28;20203;-80
2023/10/02 00:47:41;;;;;;;13.95;6.65;;;20.40;62.90;22.00;101850.00;;;;4950739;28;20210;-80
2023/10/02 00:50:10;;;;;;;10.32;5.88;;;20.30;63.10;22.10;101853.00;;;;4948485;28;20207;-80
2023/10/02 00:52:44;;;;;;;10.18;6.03;;;20.40;63.00;22.00;101855.00;;;;4947569;28;20280;-80
2023/10/02 00:55:18;;;;;;;11.30;6.25;;;20.40;63.10;22.00;101851.00;;;;4947135;28;20575;-80
2023/10/02 00:57:46;;;;;;;9.93;5.72;;;20.40;63.10;22.10;101845.00;;;;4944357;28;20808;-81
2023/10/02 01:00:19;;;;;;;12.32;6.65;;;20.40;63.00;22.10;101855.00;;;;4944269;28;20203;-80
2023/10/02 01:02:51;;;;;;;15.30;6.53;;;20.40;63.10;22.10;101850.00;;;;4950513;28;20209;-80
2023/10/02 01:05:22;;;;;;;11.20;5.93;;;20.40;63.10;22.10;101847.00;;;;4949871;28;20565;-80
2023/10/02 01:07:54;;;;;;;10.45;5.88;;;20.40;63.10;22.10;101854.00;;;;4945112;28;20663;-80
2023/10/02 01:10:23;;;;;;;9.75;5.90;;;20.40;63.20;22.20;101847.00;;;;4946796;29;20205;-79
2023/10/02 01:12:53;;;;;;;10.35;6.40;;;20.50;63.20;22.20;101854.00;;;;4944164;28;20278;-80
2023/10/02 01:15:26;;;;;;;10.10;5.57;;;20.40;63.20;22.20;101846.00;;;;4943680;28;20234;-81
2023/10/02 01:17:54;;;;;;;11.75;5.82;;;20.40;63.20;22.20;101844.00;;;;4946419;28;20210;-80
2023/10/02 01:20:32;;;;;;;18.60;6.43;;;20.40;63.20;22.20;101836.00;;;;4967954;28;20230;-80
2023/10/02 01:23:16;;;;;;;9.05;5.30;;;20.50;63.30;22.10;101840.00;;;;4945506;28;20668;-80
2023/10/02 01:25:46;;;;;;;10.93;6.05;;;20.50;63.40;22.20;101840.00;;;;4943270;29;20207;-81
2023/10/02 01:28:15;;;;;;;12.38;6.40;;;20.50;63.20;22.20;101842.00;;;;4946420;28;20644;-80
2023/10/02 01:30:45;;;;;;;12.57;5.93;;;20.50;63.20;22.20;101835.00;;;;4946214;28;20627;-80
2023/10/02 01:33:14;;;;;;;10.80;5.75;;;20.50;63.30;22.20;101837.00;;;;4946639;28;20234;-80
2023/10/02 01:35:48;;;;;;;8.50;5.28;;;20.50;63.30;22.20;101838.00;;;;4945425;28;20560;-80
2023/10/02 01:38:18;;;;;;;11.40;5.88;;;20.50;63.40;22.20;101836.00;;;;4944426;28;20276;-80
2023/10/02 01:40:53;;;;;;;9.80;5.72;;;20.50;63.30;22.20;101828.00;;;;4945614;28;20709;-80
2023/10/02 01:43:27;;;;;;;9.85;5.63;;;20.50;63.40;22.20;101835.00;;;;4938510;28;20190;-80
2023/10/02 01:45:56;;;;;;;9.07;5.43;;;20.50;63.30;22.20;101832.00;;;;4945211;28;20261;-80
2023/10/02 01:48:37;;;;;;;12.73;6.00;;;20.50;63.30;22.20;101831.00;;;;4945315;29;20211;-80
2023/10/02 01:51:21;;;;;;;12.68;6.18;;;20.50;63.30;22.10;101834.00;;;;4947074;28;20763;-80
2023/10/02 01:53:50;;;;;;;9.23;5.57;;;20.50;63.30;22.10;101832.00;;;;4953662;28;20256;-80
2023/10/02 01:56:22;;;;;;;12.32;6.53;;;20.50;63.20;22.10;101831.00;;;;4945218;28;20664;-80
2023/10/02 01:58:51;;;;;;;9.52;5.55;;;20.40;63.20;22.10;101836.00;;;;4946041;28;20214;-80
2023/10/02 02:01:20;;;;;;;8.77;5.38;;;20.50;63.20;22.10;101826.00;;;;4945961;28;20234;-80
2023/10/02 02:03:50;;;;;;;9.23;5.47;;;20.40;63.20;22.10;101826.00;;;;4944946;28;20232;-81
2023/10/02 02:06:20;;;;;;;11.20;6.00;;;20.40;63.20;22.10;101828.00;;;;4945375;28;20222;-80
2023/10/02 02:08:58;;;;;;;10.15;5.40;;;20.40;63.20;22.10;101824.00;;;;4945118;28;20649;-80
2023/10/02 02:11:29;;;;;;;8.68;4.95;;;20.40;63.30;22.10;101822.00;;;;4948833;28;20222;-80
2023/10/02 02:13:59;;;;;;;9.20;5.20;;;20.40;63.40;22.10;101828.00;;;;4945887;28;20613;-80
2023/10/02 02:16:33;;;;;;;9.25;5.90;;;20.40;63.40;22.00;101829.00;;;;4931925;29;20229;-80
2023/10/02 02:19:05;;;;;;;10.25;5.32;;;20.30;63.30;22.00;101817.00;;;;4947207;28;20249;-80
2023/10/02 02:21:33;;;;;;;11.18;6.03;;;20.30;63.30;22.00;101828.00;;;;4945282;28;20199;-80
2023/10/02 02:24:07;;;;;;;10.95;5.90;;;20.30;63.30;22.00;101826.00;;;;4939976;28;20195;-80
2023/10/02 02:26:39;;;;;;;13.52;6.10;;;20.30;63.40;22.00;101819.00;;;;4945367;28;20211;-80
2023/10/02 02:29:21;;;;;;;11.05;6.07;;;20.30;63.30;22.00;101823.00;;;;4952062;28;20776;-80
2023/10/02 02:31:48;;;;;;;9.73;5.28;;;20.30;63.30;22.00;101816.00;;;;4936120;28;20219;-80
2023/10/02 02:34:15;;;;;;;10.02;5.45;;;20.30;63.30;22.00;101809.00;;;;4949529;28;20210;-80
2023/10/02 02:36:46;;;;;;;11.80;6.55;;;20.30;64.10;22.00;101806.00;;;;4949639;28;20207;-81
2023/10/02 02:39:16;;;;;;;10.10;5.70;;;20.30;63.50;22.00;101802.00;;;;4949098;28;20603;-80
2023/10/02 02:41:48;;;;;;;11.07;5.30;;;20.20;63.40;21.90;101802.00;;;;4949355;28;20199;-80
2023/10/02 02:47:07;;;;;;;8.82;5.05;;;20.20;63.50;21.90;101791.00;;;;4961846;28;20572;-80
2023/10/02 02:49:48;;;;;;;9.65;5.90;;;20.20;63.50;21.90;101786.00;;;;4948708;28;20203;-80
2023/10/02 02:52:17;;;;;;;9.93;6.05;;;20.20;63.50;21.90;101793.00;;;;4949841;28;20326;-80
2023/10/02 02:54:47;;;;;;;11.55;5.53;;;20.20;63.60;21.90;101778.00;;;;4949006;28;20206;-80
2023/10/02 02:57:18;;;;;;;11.25;6.47;;;20.20;63.60;21.90;101788.00;;;;4948090;28;20202;-81
2023/10/02 02:59:46;;;;;;;7.95;5.10;;;20.20;63.60;21.90;101794.00;;;;4949193;28;21018;-80
2023/10/02 03:02:21;;;;;;;10.65;5.05;;;20.20;63.70;21.90;101789.00;;;;4949413;28;20214;-80
2023/10/02 03:04:51;;;;;;;9.88;5.85;;;20.20;63.70;21.90;101793.00;;;;4949091;28;20195;-80
2023/10/02 03:07:29;;;;;;;9.30;5.82;;;20.20;63.70;21.80;101793.00;;;;4948810;28;20202;-80
2023/10/02 03:10:01;;;;;;;12.73;6.05;;;20.20;63.70;21.80;101785.00;;;;4948726;29;20282;-80
2023/10/02 03:12:30;;;;;;;11.45;5.75;;;20.10;63.70;21.80;101787.00;;;;4945444;28;20234;-80
2023/10/02 03:14:57;;;;;;;9.35;5.40;;;20.10;63.70;21.80;101787.00;;;;4948402;28;20239;-80
2023/10/02 03:17:31;;;;;;;9.85;5.82;;;20.10;63.80;21.80;101789.00;;;;4948703;28;20195;-80
2023/10/02 03:20:00;;;;;;;11.05;5.68;;;20.10;63.90;21.80;101785.00;;;;4950517;28;20202;-79
2023/10/02 03:22:33;;;;;;;10.50;5.43;;;20.10;63.90;21.80;101787.00;;;;4946991;28;20660;-80
2023/10/02 03:25:25;;;;;;;12.65;6.65;;;20.10;63.90;21.80;101798.00;;;;4948085;28;20218;-80
2023/10/02 03:27:54;;;;;;;12.07;5.70;;;20.10;63.90;21.80;101801.00;;;;4945193;28;20223;-80
2023/10/02 03:33:17;;;;;;;10.57;5.85;;;20.10;63.90;21.80;101795.00;;;;4943415;28;20227;-80
2023/10/02 03:35:56;;;;;;;9.40;5.10;;;20.00;63.70;21.70;101799.00;;;;4947762;28;20291;-80
2023/10/02 03:38:25;;;;;;;12.15;5.25;;;20.00;63.70;21.70;101799.00;;;;4946709;28;20204;-80
2023/10/02 03:40:57;;;;;;;8.60;4.57;;;20.00;63.70;21.70;101798.00;;;;4946358;28;20227;-80
2023/10/02 03:43:35;;;;;;;10.63;5.38;;;20.00;63.80;21.70;101792.00;;;;4945219;28;20217;-80
2023/10/02 03:46:06;;;;;;;10.20;4.97;;;20.00;63.80;21.70;101790.00;;;;4946240;29;20199;-80
2023/10/02 03:48:34;;;;;;;8.60;5.28;;;20.00;63.70;21.70;101796.00;;;;4946055;28;20203;-80
2023/10/02 03:51:04;;;;;;;10.13;5.78;;;20.00;63.70;21.60;101793.00;;;;4946968;28;20207;-80
2023/10/02 03:53:31;;;;;;;11.32;5.50;;;20.00;63.80;21.70;101795.00;;;;4954739;28;20238;-80
2023/10/02 03:56:36;;;;;;;10.15;4.82;;;20.00;64.50;21.70;101792.00;;;;4947327;28;20218;-80
2023/10/02 03:58:49;;;;;;;10.82;5.60;;;20.00;63.80;21.60;101793.00;;;;4946684;28;20249;-80
2023/10/02 04:01:17;;;;;;;11.18;5.00;;;19.90;63.70;21.60;101793.00;;;;4947129;28;20290;-80
2023/10/02 04:04:04;;;;;;;7.85;4.50;;;19.90;63.70;21.60;101800.00;;;;4948161;29;20203;-80
2023/10/02 04:06:35;;;;;;;10.45;5.65;;;19.90;63.80;21.60;101794.00;;;;4947387;28;20199;-80
2023/10/02 04:09:13;;;;;;;13.57;5.78;;;19.90;63.80;21.60;101800.00;;;;4946501;28;20206;-81
2023/10/02 04:11:42;;;;;;;10.18;5.15;;;19.90;63.80;21.60;101794.00;;;;4945980;28;20235;-80
2023/10/02 04:14:18;;;;;;;10.63;5.25;;;19.90;63.80;21.50;101793.00;;;;4945848;29;20199;-80
2023/10/02 04:16:48;;;;;;;10.77;5.90;;;19.80;63.80;21.50;101777.00;;;;4946436;28;20256;-80
2023/10/02 04:19:18;;;;;;;8.68;5.32;;;19.80;63.90;21.50;101786.00;;;;4947640;29;20195;-80
2023/10/02 04:21:46;;;;;;;9.63;5.38;;;19.80;63.90;21.50;101793.00;;;;4947249;29;21045;-80
2023/10/02 04:24:12;;;;;;;9.30;5.00;;;19.80;64.00;21.50;101789.00;;;;4948132;28;20207;-79
2023/10/02 04:26:44;;;;;;;8.52;4.82;;;19.80;64.00;21.50;101771.00;;;;4948671;28;20214;-80
2023/10/02 04:29:25;;;;;;;10.23;5.22;;;19.80;64.00;21.50;101792.00;;;;4946502;28;20594;-80
2023/10/02 04:32:11;;;;;;;8.38;5.30;;;19.80;64.00;21.50;101795.00;;;;4945521;28;20231;-80
2023/10/02 04:34:46;;;;;;;8.13;4.72;;;19.70;63.90;21.50;101786.00;;;;4949298;28;20203;-80
2023/10/02 04:37:20;;;;;;;10.05;5.60;;;19.70;63.80;21.40;101779.00;;;;4947737;28;20690;-79
2023/10/02 04:40:14;;;;;;;8.60;4.72;;;19.70;63.80;21.40;101763.00;;;;4947212;29;20218;-80
2023/10/02 04:43:14;;;;;;;8.90;5.05;;;19.70;63.90;21.40;101775.00;;;;4947501;28;20200;-80
2023/10/02 04:45:44;;;;;;;9.75;4.90;;;19.70;64.00;21.30;101772.00;;;;4940670;28;20804;-80
2023/10/02 04:48:11;;;;;;;8.30;5.22;;;19.70;63.90;21.30;101768.00;;;;4945848;29;20210;-80
2023/10/02 04:50:45;;;;;;;11.45;5.53;;;19.60;64.00;21.30;101760.00;;;;4947944;28;20282;-80
2023/10/02 04:53:23;;;;;;;11.05;5.75;;;19.60;64.10;21.30;101759.00;;;;4947014;28;20270;-79
2023/10/02 04:56:13;;;;;;;10.10;5.55;;;19.60;64.80;21.30;101765.00;;;;4945986;28;20223;-80
2023/10/02 04:58:47;;;;;;;14.30;6.35;;;19.60;64.10;21.30;101770.00;;;;4945697;28;20248;-79
2023/10/02 05:01:34;;;;;;;8.48;5.63;;;19.60;64.10;21.20;101772.00;;;;4949405;28;20261;-80
2023/10/02 05:04:02;;;;;;;10.75;5.38;;;19.50;64.30;21.30;101774.00;;;;4941004;28;20255;-81
2023/10/02 05:06:52;;;;;;;10.25;6.00;;;19.60;64.30;21.30;101768.00;;;;4948498;28;20212;-80
2023/10/02 05:09:25;;;;;;;14.88;6.10;;;19.50;64.30;21.20;101765.00;;;;4947778;28;20203;-80
2023/10/02 05:11:55;;;;;;;11.40;5.88;;;19.50;64.30;21.30;101769.00;;;;4947145;28;20340;-80
2023/10/02 05:14:26;;;;;;;9.40;5.35;;;19.50;64.40;21.30;101769.00;;;;4946522;28;20195;-80
2023/10/02 05:17:16;;;;;;;8.75;5.45;;;19.50;64.40;21.20;101770.00;;;;4939910;28;20206;-80
2023/10/02 05:19:57;;;;;;;9.80;5.75;;;19.50;64.40;21.30;101770.00;;;;4961828;28;20223;-80
2023/10/02 05:22:27;;;;;;;9.90;4.95;;;19.50;64.40;21.20;101771.00;;;;4935092;28;20264;-80
2023/10/02 05:24:58;;;;;;;8.93;5.53;;;19.50;64.40;21.20;101776.00;;;;4945650;28;20211;-80
2023/10/02 05:27:30;;;;;;;8.93;5.65;;;19.60;64.40;21.20;101775.00;;;;4946061;28;20215;-80
2023/10/02 05:29:58;;;;;;;9.18;5.50;;;19.50;64.40;21.20;101777.00;;;;4940421;28;20234;-80
2023/10/02 05:32:31;;;;;;;8.98;5.65;;;19.50;64.40;21.20;101781.00;;;;4937466;28;20226;-81
2023/10/02 05:35:16;;;;;;;10.65;5.50;;;19.50;64.50;21.20;101774.00;;;;4945312;28;20361;-81
2023/10/02 05:37:46;;;;;;;11.48;6.10;;;19.50;64.50;21.20;101778.00;;;;4950799;28;20627;-81
2023/10/02 05:40:37;;;;;;;10.85;5.38;;;19.50;64.50;21.20;101780.00;;;;4949834;28;20238;-80
2023/10/02 05:43:10;;;;;;;11.10;6.10;;;19.50;64.50;21.20;101776.00;;;;4947351;28;20339;-80
2023/10/02 05:45:47;;;;;;;7.93;4.97;;;19.50;64.40;21.20;101767.00;;;;4954737;28;20287;-79
2023/10/02 05:48:27;;;;;;;10.30;5.60;;;19.50;64.60;21.20;101767.00;;;;4952809;28;20195;-80
2023/10/02 05:50:56;;;;;;;11.23;6.75;;;19.50;64.60;21.20;101774.00;;;;4952280;28;20253;-79
2023/10/02 05:53:26;;;;;;;11.40;5.55;;;19.50;64.60;21.20;101777.00;;;;4951805;28;20219;-80
2023/10/02 05:56:12;;;;;;;10.10;5.43;;;19.50;64.60;21.20;101776.00;;;;4942693;28;20234;-80
2023/10/02 05:58:42;;;;;;;7.97;4.95;;;19.50;64.70;21.20;101776.00;;;;4943158;28;20195;-80
2023/10/02 06:01:23;;;;;;;10.63;6.22;;;19.40;64.60;21.20;101781.00;;;;4947161;28;20590;-79
2023/10/02 06:03:57;;;;;;;10.63;6.28;;;19.40;64.70;21.20;101782.00;;;;4949751;28;20206;-78
2023/10/02 06:06:27;;;;;;;11.65;5.65;;;19.40;64.80;21.20;101779.00;;;;4950198;28;20698;-78
2023/10/02 06:09:00;;;;;;;9.07;4.82;;;19.40;64.80;21.20;101784.00;;;;4951675;28;20219;-78
2023/10/02 06:11:28;;;;;;;10.57;5.40;;;19.50;65.00;21.20;101787.00;;;;4948668;28;20553;-78
2023/10/02 06:13:57;;;;;;;9.88;5.63;;;19.50;65.00;21.20;101791.00;;;;4950391;28;20219;-79
2023/10/02 06:16:30;;;;;;;11.95;5.43;;;19.50;65.10;21.20;101789.00;;;;4947610;28;20199;-79
2023/10/02 06:19:01;;;;;;;10.15;6.22;;;19.50;65.20;21.30;101793.00;;;;4948848;28;20211;-79
2023/10/02 06:21:30;;;;;;;9.27;5.25;;;19.50;65.20;21.30;101791.00;;;;4949836;28;20211;-79
2023/10/02 06:23:57;;;;;;;11.07;5.85;;;19.60;65.30;21.30;101797.00;;;;4950671;28;20640;-79
2023/10/02 06:26:30;;;;;;;11.55;6.15;;;19.60;65.40;21.30;101797.00;;;;4982267;28;20285;-78
2023/10/02 06:29:22;;;;;;;12.60;5.93;;;19.60;65.40;21.40;101795.00;;;;5051723;28;20331;-79
2023/10/02 06:31:58;;;;;;;10.85;5.18;;;19.60;65.40;21.40;101797.00;;;;5038785;28;20704;-79
2023/10/02 06:34:37;;;;;;;10.15;5.60;;;19.60;65.50;21.40;101808.00;;;;4949546;28;20191;-79
2023/10/02 06:37:11;;;;;;;10.05;5.63;;;19.70;65.80;21.40;101805.00;;;;4949316;28;20282;-78
2023/10/02 06:39:40;;;;;;;11.50;6.10;;;19.70;65.80;21.50;101807.00;;;;4948157;28;20241;-79
2023/10/02 06:42:10;;;;;;;10.52;5.20;;;19.70;65.70;21.50;101806.00;;;;4950089;28;20230;-79
2023/10/02 06:44:42;;;;;;;11.93;5.70;;;19.70;66.50;21.60;101802.00;;;;4953345;28;20211;-79
2023/10/02 06:47:13;;;;;;;9.80;5.80;;;19.80;65.90;21.60;101817.00;;;;4947328;28;20708;-79
2023/10/02 06:49:43;;;;;;;9.95;5.93;;;19.80;66.00;21.60;101808.00;;;;4948793;28;20277;-78
2023/10/02 06:52:16;;;;;;;10.65;5.90;;;19.90;66.10;21.70;101804.00;;;;4949063;28;20199;-79
2023/10/02 06:54:45;;;;;;;9.43;5.55;;;20.00;66.20;21.70;101811.00;;;;4949475;28;20203;-78
2023/10/02 06:57:16;;;;;;;13.10;6.63;;;20.00;66.10;21.80;101807.00;;;;4956338;28;20298;-78
2023/10/02 06:59:53;;;;;;;9.45;5.30;;;20.00;66.20;21.80;101801.00;;;;4951830;28;20557;-78
2023/10/02 07:02:21;;;;;;;8.30;4.88;;;20.10;66.30;21.90;101810.00;;;;4945595;28;20229;-79
2023/10/02 07:04:52;;;;;;;9.82;5.32;;;20.20;66.20;21.90;101812.00;;;;4948724;28;20203;-79
2023/10/02 07:07:24;;;;;;;11.80;6.00;;;20.20;66.20;22.00;101813.00;;;;4948976;29;20211;-79
2023/10/02 07:09:54;;;;;;;12.18;5.47;;;20.20;66.20;22.00;101810.00;;;;4947548;28;20210;-78
2023/10/02 07:12:27;;;;;;;10.68;5.88;;;20.30;66.20;22.10;101819.00;;;;4946146;28;20249;-78
2023/10/02 07:15:10;;;;;;;15.20;5.97;;;20.40;66.20;22.10;101819.00;;;;4944671;28;20226;-79
2023/10/02 07:17:47;;;;;;;12.10;5.53;;;20.40;66.20;22.20;101814.00;;;;4952018;28;20214;-79
2023/10/02 07:20:17;;;;;;;11.70;6.43;;;20.50;66.20;22.20;101823.00;;;;4949224;28;20739;-79
2023/10/02 07:22:45;;;;;;;10.73;5.63;;;20.50;66.20;22.30;101825.00;;;;4949905;28;20379;-79
2023/10/02 07:25:15;;;;;;;10.82;6.10;;;20.50;66.20;22.30;101816.00;;;;4949331;28;20211;-79
2023/10/02 07:27:42;;;;;;;12.68;6.82;;;20.60;66.20;22.40;101822.00;;;;4948275;28;20338;-79
2023/10/02 07:30:24;;;;;;;15.13;6.45;;;20.70;66.30;22.40;101812.00;;;;4949123;28;20290;-79
2023/10/02 07:32:53;;;;;;;10.75;5.63;;;20.70;66.30;22.50;101810.00;;;;4949730;28;20222;-79
2023/10/02 07:35:22;;;;;;;14.55;6.65;;;20.80;66.30;22.60;101818.00;;;;4951723;28;20199;-79
2023/10/02 07:37:58;;;;;;;14.73;6.38;;;20.80;66.40;22.60;101825.00;;;;4949342;28;20203;-79
2023/10/02 07:40:27;;;;;;;12.90;6.93;;;20.90;66.40;22.70;101823.00;;;;4934290;28;20252;-79
2023/10/02 07:42:54;;;;;;;12.35;7.32;;;20.90;66.30;22.70;101823.00;;;;4948867;28;20195;-79
2023/10/02 07:45:25;;;;;;;11.90;7.03;;;21.00;66.30;22.80;101836.00;;;;4948577;28;20196;-79
2023/10/02 07:50:44;;;;;;;10.52;6.07;;;21.10;66.20;22.90;101831.00;;;;4956879;28;20617;-79
2023/10/02 07:53:12;;;;;;;11.82;6.53;;;21.20;66.20;22.90;101829.00;;;;4948839;28;20995;-79
2023/10/02 07:55:47;;;;;;;21.67;6.82;;;21.20;66.30;22.90;101826.00;;;;4947696;28;20215;-79
2023/10/02 07:58:19;;;;;;;9.57;5.38;;;21.30;66.30;23.10;101836.00;;;;4948132;28;20201;-79
2023/10/02 08:00:49;;;;;;;9.77;6.15;;;21.30;66.20;23.10;101834.00;;;;4947757;28;20211;-79
2023/10/02 08:03:42;;;;;;;12.05;6.93;;;21.40;66.30;23.20;101834.00;;;;4948552;28;20289;-79
2023/10/02 08:06:23;;;;;;;11.63;5.80;;;21.40;66.30;23.20;101829.00;;;;4948251;28;20290;-79
2023/10/02 08:09:35;;;;;;;13.65;7.03;;;21.50;66.20;23.30;101833.00;;;;4952124;28;20214;-79
2023/10/02 08:11:41;;;;;;;12.25;6.53;;;21.60;66.20;23.40;101843.00;;;;4948365;28;20230;-80
2023/10/02 08:14:34;;;;;;;11.95;5.80;;;21.60;66.20;23.40;101846.00;;;;4946975;28;20227;-79
2023/10/02 08:16:59;;;;;;;16.58;7.47;;;21.70;66.30;23.50;101853.00;;;;4948138;28;20280;-79
2023/10/02 08:19:27;;;;;;;14.02;8.00;;;21.80;66.30;23.50;101852.00;;;;4944911;28;20198;-79
2023/10/02 08:21:55;;;;;;;11.40;7.20;;;21.80;66.20;23.60;101850.00;;;;4948178;28;20199;-79
2023/10/02 08:24:22;;;;;;;13.25;7.07;;;21.90;66.20;23.60;101852.00;;;;4948918;28;20281;-79
2023/10/02 08:26:50;;;;;;;13.82;7.22;;;21.90;66.10;23.70;101851.00;;;;5039655;28;20206;-79
2023/10/02 08:29:18;;;;;;;15.65;7.65;;;22.00;66.10;23.70;101856.00;;;;5048611;28;20713;-80
2023/10/02 08:31:48;;;;;;;12.38;8.27;;;22.00;66.10;23.80;101851.00;;;;5049270;28;21116;-80
2023/10/02 08:34:19;;;;;;;14.82;7.45;;;22.10;66.00;23.80;101850.00;;;;4994529;28;20599;-79
2023/10/02 08:36:48;;;;;;;13.38;7.53;;;22.10;66.00;23.90;101856.00;;;;4948293;29;20199;-79
2023/10/02 08:39:21;;;;;;;13.85;6.90;;;22.20;65.90;23.90;101845.00;;;;4947626;28;20246;-80
2023/10/02 08:41:51;;;;;;;13.70;7.22;;;22.20;65.90;24.00;101850.00;;;;4954979;28;20195;-79
2023/10/02 08:44:20;;;;;;;12.63;7.20;;;22.30;65.90;24.00;101847.00;;;;5048607;28;20214;-79
2023/10/02 08:46:48;;;;;;;12.65;6.68;;;22.40;65.80;24.10;101843.00;;;;5048988;28;20199;-80
2023/10/02 08:49:16;;;;;;;13.65;7.80;;;22.40;65.70;24.10;101850.00;;;;5010789;28;20241;-80
2023/10/02 08:51:49;;;;;;;13.60;6.40;;;22.40;65.60;24.20;101843.00;;;;4946509;28;20206;-79
2023/10/02 08:54:18;;;;;;;12.32;6.88;;;22.50;65.70;24.20;101847.00;;;;4947895;29;20223;-80
2023/10/02 08:56:48;;;;;;;13.02;6.07;;;22.60;65.70;24.30;101852.00;;;;5011313;28;20218;-79
2023/10/02 08:59:26;;;;;;;15.30;7.63;;;22.60;65.70;24.30;101856.00;;;;5024035;28;20210;-79
2023/10/02 09:02:13;;;;;;;11.25;5.50;;;22.70;65.80;24.30;101859.00;;;;4947396;28;20207;-79
2023/10/02 09:04:42;;;;;;;14.35;7.18;;;22.70;65.70;24.40;101849.00;;;;4947044;28;20284;-80
2023/10/02 09:07:23;;;;;;;17.25;7.50;;;22.80;65.50;24.30;101854.00;;;;4948292;28;20237;-80
2023/10/02 09:10:12;;;;;;;13.30;6.75;;;22.80;65.60;24.40;101851.00;;;;4947909;28;20217;-79
2023/10/02 09:12:48;;;;;;;11.73;6.72;;;22.90;65.60;24.50;101840.00;;;;4946559;28;20199;-79
2023/10/02 09:15:29;;;;;;;13.25;6.55;;;22.90;65.40;24.50;101842.00;;;;4944347;28;20203;-80
2023/10/02 09:17:58;;;;;;;14.40;6.32;;;23.00;65.50;24.60;101828.00;;;;5040966;28;20203;-80
2023/10/02 09:20:38;;;;;;;14.43;7.45;;;23.00;65.40;24.70;101840.00;;;;4942225;28;20221;-79
2023/10/02 09:23:09;;;;;;;11.90;7.07;;;23.00;65.60;24.80;101837.00;;;;4945267;28;20371;-79
2023/10/02 09:25:40;;;;;;;13.00;6.05;;;23.10;65.60;24.80;101847.00;;;;4947191;28;20203;-80
2023/10/02 09:28:13;;;;;;;14.27;7.20;;;23.20;65.60;24.90;101848.00;;;;4946427;28;20269;-79
2023/10/02 09:30:42;;;;;;;10.13;6.03;;;23.20;65.60;25.00;101840.00;;;;4944691;28;20321;-80
2023/10/02 09:33:14;;;;;;;14.25;7.78;;;23.30;65.50;25.00;101824.00;;;;4954641;28;20195;-79
2023/10/02 09:35:43;;;;;;;12.55;6.90;;;23.30;65.30;25.10;101823.00;;;;4946235;28;20577;-80
2023/10/02 09:38:13;;;;;;;15.07;7.88;;;23.40;65.40;25.20;101823.00;;;;4947540;28;20211;-79
2023/10/02 09:40:54;;;;;;;12.30;6.90;;;23.50;65.50;25.20;101823.00;;;;4946524;28;20693;-79
2023/10/02 09:43:23;;;;;;;12.35;7.35;;;23.60;65.50;25.30;101825.00;;;;4949627;28;20290;-80
2023/10/02 09:45:55;;;;;;;14.07;7.25;;;23.70;65.30;25.40;101825.00;;;;4950210;28;20217;-80
2023/10/02 09:48:53;;;;;;;11.48;5.68;;;23.70;65.10;25.40;101815.00;;;;4949083;28;20206;-80
2023/10/02 09:51:37;;;;;;;10.35;6.00;;;23.80;65.20;25.50;101823.00;;;;4960463;28;20191;-79
2023/10/02 09:54:18;;;;;;;12.50;7.55;;;23.90;64.90;25.50;101820.00;;;;4950408;28;20233;-79
2023/10/02 09:57:05;;;;;;;15.25;7.25;;;24.00;64.60;25.50;101823.00;;;;5014620;28;20195;-79
2023/10/02 09:59:45;;;;;;;10.77;6.60;;;24.00;64.40;25.60;101823.00;;;;5005672;28;20191;-80
2023/10/02 10:08:18;;;;;;;12.35;6.93;;;24.10;64.20;25.70;101814.00;;;;4952174;28;20630;-80
2023/10/02 10:10:48;;;;;;;14.88;7.63;;;24.20;64.30;25.80;101798.00;;;;4949480;28;20990;-80
2023/10/02 10:13:36;;;;;;;15.48;8.13;;;24.20;64.20;25.70;101797.00;;;;4950075;28;20249;-80
2023/10/02 10:16:34;;;;;;;16.80;7.03;;;24.20;64.10;25.80;101811.00;;;;4948723;28;20244;-79
2023/10/02 10:19:27;;;;;;;11.98;6.50;;;24.30;64.20;25.90;101808.00;;;;4945408;28;20642;-79
2023/10/02 10:21:56;;;;;;;10.60;6.32;;;24.40;64.40;26.10;101794.00;;;;4949550;28;20735;-79
2023/10/02 10:24:56;;;;;;;11.93;6.28;;;24.50;64.50;26.10;101786.00;;;;4952930;28;20237;-80
2023/10/02 10:27:54;;;;;;;11.15;6.18;;;24.50;64.50;26.20;101785.00;;;;4950070;28;20191;-80
2023/10/02 10:30:44;;;;;;;9.02;5.85;;;24.60;64.10;26.20;101790.00;;;;4946040;28;20207;-80
2023/10/02 10:33:35;;;;;;;11.45;6.78;;;24.70;64.00;26.30;101801.00;;;;4948353;28;20764;-80
2023/10/02 10:36:13;;;;;;;12.82;6.82;;;24.80;64.00;26.40;101800.00;;;;4943847;28;20673;-81
2023/10/02 10:38:44;;;;;;;11.32;6.75;;;24.90;63.80;26.40;101808.00;;;;4947011;28;20252;-80
2023/10/02 10:41:31;;;;;;;13.30;5.95;;;24.90;63.60;26.30;101807.00;;;;4951677;28;20215;-81
2023/10/02 10:43:59;;;;;;;16.63;7.85;;;24.90;63.40;26.50;101804.00;;;;4951472;28;20202;-81
2023/10/02 10:46:31;;;;;;;13.30;6.07;;;24.90;63.40;26.50;101797.00;;;;4946006;28;20239;-80
2023/10/02 10:49:07;;;;;;;11.93;5.85;;;25.00;63.50;26.60;101795.00;;;;4946564;28;20198;-80
2023/10/02 10:51:36;;;;;;;8.95;5.13;;;25.00;63.40;26.60;101798.00;;;;4948699;28;20260;-81
2023/10/02 10:54:19;;;;;;;13.85;6.22;;;25.00;63.40;26.60;101789.00;;;;4949227;28;20768;-82
2023/10/02 10:57:19;;;;;;;12.43;6.40;;;25.10;63.40;26.60;101786.00;;;;4948191;28;20210;-82
2023/10/02 10:59:46;;;;;;;11.73;6.32;;;25.10;63.20;26.70;101793.00;;;;4947155;28;20202;-82
2023/10/02 11:02:17;;;;;;;12.98;6.60;;;25.20;63.10;26.70;101787.00;;;;4941504;28;20210;-82
2023/10/02 11:04:47;;;;;;;9.75;6.00;;;25.20;63.10;26.80;101787.00;;;;4948901;28;20252;-82
2023/10/02 11:07:23;;;;;;;12.73;6.72;;;25.20;63.10;26.90;101787.00;;;;4930717;28;20238;-81
2023/10/02 11:12:54;;;;;;;11.32;6.28;;;25.40;63.50;27.10;101799.00;;;;4949466;28;20199;-82
2023/10/02 11:15:45;;;;;;;10.60;6.30;;;25.50;63.50;27.10;101799.00;;;;4951971;28;20222;-82
2023/10/02 11:18:20;;;;;;;14.13;6.95;;;25.60;63.30;27.20;101795.00;;;;4932992;28;20257;-81
2023/10/02 11:20:51;;;;;;;11.95;6.43;;;25.70;63.20;27.30;101789.00;;;;4937969;28;20207;-81
2023/10/02 11:23:37;;;;;;;13.05;6.82;;;25.80;63.10;27.30;101786.00;;;;4949613;28;20257;-79
2023/10/02 11:26:11;;;;;;;11.80;6.45;;;25.80;63.30;27.50;101790.00;;;;4939183;29;20208;-81
2023/10/02 11:28:39;;;;;;;14.15;6.82;;;25.90;62.90;27.50;101785.00;;;;4946947;28;20301;-80
2023/10/02 11:31:30;;;;;;;11.80;6.07;;;26.00;62.70;27.50;101788.00;;;;4946213;28;20211;-80